sensor_id;sensor_type;location;lat;lon;timestamp;temperature;humidity
56542;DHT22;42438;53.174;6.730;2023-05-10T00:00:26;13.80;2.90
56542;DHT22;42438;53.174;6.730;2023-05-10T00:02:56;13.70;2.20
56542;DHT22;42438;53.174;6.730;2023-05-10T00:05:27;13.90;1.30
56542;DHT22;42438;53.174;6.730;2023-05-10T00:07:58;13.60;2.00
56542;DHT22;42438;53.174;6.730;2023-05-10T00:10:29;13.60;1.30
56542;DHT22;42438;53.174;6.730;2023-05-10T00:12:59;13.60;1.50
56542;DHT22;42438;53.174;6.730;2023-05-10T00:15:30;13.50;1.00
56542;DHT22;42438;53.174;6.730;2023-05-10T00:18:01;13.40;1.00
56542;DHT22;42438;53.174;6.730;2023-05-10T00:20:31;13.30;1.00
56542;DHT22;42438;53.174;6.730;2023-05-10T00:23:02;13.30;1.00
56542;DHT22;42438;53.174;6.730;2023-05-10T00:25:33;13.10;1.00
56542;DHT22;42438;53.174;6.730;2023-05-10T00:28:03;13.10;1.00
56542;DHT22;42438;53.174;6.730;2023-05-10T00:30:34;13.00;1.00
56542;DHT22;42438;53.174;6.730;2023-05-10T00:33:05;12.90;1.00
56542;DHT22;42438;53.174;6.730;2023-05-10T00:35:35;12.90;1.00
56542;DHT22;42438;53.174;6.730;2023-05-10T00:38:06;12.90;1.00
56542;DHT22;42438;53.174;6.730;2023-05-10T00:40:37;12.80;1.00
56542;DHT22;42438;53.174;6.730;2023-05-10T00:43:08;12.80;1.00
56542;DHT22;42438;53.174;6.730;2023-05-10T00:45:40;12.80;1.00
56542;DHT22;42438;53.174;6.730;2023-05-10T00:48:11;12.80;1.00
56542;DHT22;42438;53.174;6.730;2023-05-10T00:50:43;12.70;1.00
56542;DHT22;42438;53.174;6.730;2023-05-10T00:53:15;12.70;1.00
56542;DHT22;42438;53.174;6.730;2023-05-10T00:55:45;12.70;1.00
56542;DHT22;42438;53.174;6.730;2023-05-10T00:58:16;12.70;1.00
56542;DHT22;42438;53.174;6.730;2023-05-10T01:00:47;12.70;1.00
56542;DHT22;42438;53.174;6.730;2023-05-10T01:03:18;12.70;1.00
56542;DHT22;42438;53.174;6.730;2023-05-10T01:05:49;12.70;1.00
56542;DHT22;42438;53.174;6.730;2023-05-10T01:08:20;12.70;1.00
56542;DHT22;42438;53.174;6.730;2023-05-10T01:10:51;12.80;1.00
56542;DHT22;42438;53.174;6.730;2023-05-10T01:13:38;12.80;1.00
56542;DHT22;42438;53.174;6.730;2023-05-10T01:16:09;12.80;1.00
56542;DHT22;42438;53.174;6.730;2023-05-10T01:18:41;12.80;1.00
56542;DHT22;42438;53.174;6.730;2023-05-10T01:21:23;12.80;1.30
56542;DHT22;42438;53.174;6.730;2023-05-10T01:35:46;12.80;1.60
56542;DHT22;42438;53.174;6.730;2023-05-10T01:38:47;12.70;1.30
56542;DHT22;42438;53.174;6.730;2023-05-10T01:41:49;12.70;2.30
56542;DHT22;42438;53.174;6.730;2023-05-10T01:44:35;12.70;1.00
56542;DHT22;42438;53.174;6.730;2023-05-10T01:47:15;12.70;2.00
56542;DHT22;42438;53.174;6.730;2023-05-10T01:49:53;12.70;1.00
56542;DHT22;42438;53.174;6.730;2023-05-10T01:52:37;12.70;2.10
56542;DHT22;42438;53.174;6.730;2023-05-10T01:55:13;12.60;3.10
56542;DHT22;42438;53.174;6.730;2023-05-10T01:57:46;12.60;1.60
56542;DHT22;42438;53.174;6.730;2023-05-10T02:00:19;12.60;2.40
56542;DHT22;42438;53.174;6.730;2023-05-10T02:02:51;12.50;2.40
56542;DHT22;42438;53.174;6.730;2023-05-10T02:05:22;12.60;3.90
56542;DHT22;42438;53.174;6.730;2023-05-10T02:07:55;12.50;4.30
56542;DHT22;42438;53.174;6.730;2023-05-10T02:10:28;12.50;4.30
56542;DHT22;42438;53.174;6.730;2023-05-10T02:13:00;12.50;7.20
56542;DHT22;42438;53.174;6.730;2023-05-10T02:15:32;12.50;7.30
56542;DHT22;42438;53.174;6.730;2023-05-10T02:18:04;12.50;7.70
56542;DHT22;42438;53.174;6.730;2023-05-10T02:20:37;12.50;9.90
56542;DHT22;42438;53.174;6.730;2023-05-10T02:23:08;12.50;10.60
56542;DHT22;42438;53.174;6.730;2023-05-10T02:25:41;12.50;9.40
56542;DHT22;42438;53.174;6.730;2023-05-10T02:28:13;12.50;10.00
56542;DHT22;42438;53.174;6.730;2023-05-10T02:30:45;12.50;14.10
56542;DHT22;42438;53.174;6.730;2023-05-10T02:33:17;12.50;12.30
56542;DHT22;42438;53.174;6.730;2023-05-10T02:35:50;12.40;11.30
56542;DHT22;42438;53.174;6.730;2023-05-10T02:38:22;12.50;14.00
56542;DHT22;42438;53.174;6.730;2023-05-10T02:40:55;12.40;14.60
56542;DHT22;42438;53.174;6.730;2023-05-10T02:43:28;12.40;13.20
56542;DHT22;42438;53.174;6.730;2023-05-10T02:46:00;12.40;13.00
56542;DHT22;42438;53.174;6.730;2023-05-10T02:48:31;12.40;13.50
56542;DHT22;42438;53.174;6.730;2023-05-10T02:51:05;12.40;12.90
56542;DHT22;42438;53.174;6.730;2023-05-10T02:53:38;12.40;13.90
56542;DHT22;42438;53.174;6.730;2023-05-10T02:56:23;12.40;14.20
56542;DHT22;42438;53.174;6.730;2023-05-10T02:58:56;12.40;14.60
56542;DHT22;42438;53.174;6.730;2023-05-10T03:01:26;12.40;14.60
56542;DHT22;42438;53.174;6.730;2023-05-10T03:03:57;12.30;14.80
56542;DHT22;42438;53.174;6.730;2023-05-10T03:06:28;12.30;15.10
56542;DHT22;42438;53.174;6.730;2023-05-10T03:08:59;12.40;15.00
56542;DHT22;42438;53.174;6.730;2023-05-10T03:14:47;12.30;15.70
56542;DHT22;42438;53.174;6.730;2023-05-10T03:17:23;12.30;16.40
56542;DHT22;42438;53.174;6.730;2023-05-10T03:19:57;12.30;15.80
56542;DHT22;42438;53.174;6.730;2023-05-10T03:22:44;12.30;15.70
56542;DHT22;42438;53.174;6.730;2023-05-10T03:25:16;12.30;15.50
56542;DHT22;42438;53.174;6.730;2023-05-10T03:27:49;12.30;16.80
56542;DHT22;42438;53.174;6.730;2023-05-10T03:30:20;12.30;16.90
56542;DHT22;42438;53.174;6.730;2023-05-10T03:32:51;12.40;16.80
56542;DHT22;42438;53.174;6.730;2023-05-10T03:35:22;12.40;16.20
56542;DHT22;42438;53.174;6.730;2023-05-10T03:37:53;12.40;16.40
56542;DHT22;42438;53.174;6.730;2023-05-10T03:40:25;12.30;15.50
56542;DHT22;42438;53.174;6.730;2023-05-10T03:42:57;12.30;15.50
56542;DHT22;42438;53.174;6.730;2023-05-10T03:45:27;12.30;15.30
56542;DHT22;42438;53.174;6.730;2023-05-10T03:47:58;12.40;15.20
56542;DHT22;42438;53.174;6.730;2023-05-10T03:50:29;12.40;15.80
56542;DHT22;42438;53.174;6.730;2023-05-10T03:52:59;12.40;15.80
56542;DHT22;42438;53.174;6.730;2023-05-10T03:55:30;12.40;15.80
56542;DHT22;42438;53.174;6.730;2023-05-10T03:58:04;12.40;15.60
56542;DHT22;42438;53.174;6.730;2023-05-10T04:00:35;12.40;15.50
56542;DHT22;42438;53.174;6.730;2023-05-10T04:03:06;12.40;15.40
56542;DHT22;42438;53.174;6.730;2023-05-10T04:05:36;12.40;15.50
56542;DHT22;42438;53.174;6.730;2023-05-10T04:08:07;12.40;15.20
56542;DHT22;42438;53.174;6.730;2023-05-10T04:10:38;12.40;15.10
56542;DHT22;42438;53.174;6.730;2023-05-10T04:13:08;12.40;15.20
56542;DHT22;42438;53.174;6.730;2023-05-10T04:15:40;12.70;15.40
56542;DHT22;42438;53.174;6.730;2023-05-10T04:18:11;12.40;15.80
56542;DHT22;42438;53.174;6.730;2023-05-10T04:20:41;12.40;16.20
56542;DHT22;42438;53.174;6.730;2023-05-10T04:23:12;12.70;16.30
56542;DHT22;42438;53.174;6.730;2023-05-10T04:25:44;12.40;16.30
56542;DHT22;42438;53.174;6.730;2023-05-10T04:28:15;12.40;17.60
56542;DHT22;42438;53.174;6.730;2023-05-10T04:30:45;12.40;17.70
56542;DHT22;42438;53.174;6.730;2023-05-10T04:33:16;12.40;18.20
56542;DHT22;42438;53.174;6.730;2023-05-10T04:35:47;12.40;20.30
56542;DHT22;42438;53.174;6.730;2023-05-10T04:38:17;12.40;21.20
56542;DHT22;42438;53.174;6.730;2023-05-10T04:40:48;12.40;21.70
56542;DHT22;42438;53.174;6.730;2023-05-10T04:43:19;12.30;23.50
56542;DHT22;42438;53.174;6.730;2023-05-10T04:45:49;12.40;22.60
56542;DHT22;42438;53.174;6.730;2023-05-10T04:48:20;12.40;28.90
56542;DHT22;42438;53.174;6.730;2023-05-10T04:50:51;12.40;31.00
56542;DHT22;42438;53.174;6.730;2023-05-10T04:53:22;12.30;31.70
56542;DHT22;42438;53.174;6.730;2023-05-10T04:55:52;12.30;33.60
56542;DHT22;42438;53.174;6.730;2023-05-10T04:58:23;12.30;35.40
56542;DHT22;42438;53.174;6.730;2023-05-10T05:00:54;12.30;41.80
56542;DHT22;42438;53.174;6.730;2023-05-10T05:03:24;12.30;42.00
56542;DHT22;42438;53.174;6.730;2023-05-10T05:05:55;12.30;43.00
56542;DHT22;42438;53.174;6.730;2023-05-10T05:08:25;12.30;42.40
56542;DHT22;42438;53.174;6.730;2023-05-10T05:10:56;12.30;43.00
56542;DHT22;42438;53.174;6.730;2023-05-10T05:13:27;12.30;44.10
56542;DHT22;42438;53.174;6.730;2023-05-10T05:16:00;12.50;49.90
56542;DHT22;42438;53.174;6.730;2023-05-10T05:18:31;12.60;51.10
56542;DHT22;42438;53.174;6.730;2023-05-10T05:21:02;12.20;50.40
56542;DHT22;42438;53.174;6.730;2023-05-10T05:23:33;12.20;50.00
56542;DHT22;42438;53.174;6.730;2023-05-10T05:26:03;12.10;50.00
56542;DHT22;42438;53.174;6.730;2023-05-10T05:28:34;12.10;52.20
56542;DHT22;42438;53.174;6.730;2023-05-10T05:31:07;12.10;57.20
56542;DHT22;42438;53.174;6.730;2023-05-10T05:33:38;12.10;57.40
56542;DHT22;42438;53.174;6.730;2023-05-10T05:36:08;12.10;56.70
56542;DHT22;42438;53.174;6.730;2023-05-10T05:38:39;12.10;61.30
56542;DHT22;42438;53.174;6.730;2023-05-10T05:41:10;12.40;62.80
56542;DHT22;42438;53.174;6.730;2023-05-10T05:43:41;12.10;62.10
56542;DHT22;42438;53.174;6.730;2023-05-10T05:46:11;12.20;64.00
56542;DHT22;42438;53.174;6.730;2023-05-10T05:48:42;12.20;63.90
56542;DHT22;42438;53.174;6.730;2023-05-10T05:51:13;12.20;67.90
56542;DHT22;42438;53.174;6.730;2023-05-10T05:53:43;12.20;67.50
56542;DHT22;42438;53.174;6.730;2023-05-10T05:56:14;12.20;69.40
56542;DHT22;42438;53.174;6.730;2023-05-10T05:58:45;12.20;69.20
56542;DHT22;42438;53.174;6.730;2023-05-10T06:01:15;12.20;70.30
56542;DHT22;42438;53.174;6.730;2023-05-10T06:03:46;12.30;69.40
56542;DHT22;42438;53.174;6.730;2023-05-10T06:06:17;12.20;69.20
56542;DHT22;42438;53.174;6.730;2023-05-10T06:08:47;12.20;67.40
56542;DHT22;42438;53.174;6.730;2023-05-10T06:11:18;12.20;67.70
56542;DHT22;42438;53.174;6.730;2023-05-10T06:13:48;12.30;69.30
56542;DHT22;42438;53.174;6.730;2023-05-10T06:16:19;12.30;70.50
56542;DHT22;42438;53.174;6.730;2023-05-10T06:18:50;12.30;72.40
56542;DHT22;42438;53.174;6.730;2023-05-10T06:21:21;12.30;72.80
56542;DHT22;42438;53.174;6.730;2023-05-10T06:23:52;12.30;73.00
56542;DHT22;42438;53.174;6.730;2023-05-10T06:26:22;12.30;74.80
56542;DHT22;42438;53.174;6.730;2023-05-10T06:28:53;12.30;74.80
56542;DHT22;42438;53.174;6.730;2023-05-10T06:31:24;12.40;75.90
56542;DHT22;42438;53.174;6.730;2023-05-10T06:33:54;12.40;76.70
56542;DHT22;42438;53.174;6.730;2023-05-10T06:36:25;12.40;76.60
56542;DHT22;42438;53.174;6.730;2023-05-10T06:38:56;12.40;75.40
56542;DHT22;42438;53.174;6.730;2023-05-10T06:41:27;12.40;74.20
56542;DHT22;42438;53.174;6.730;2023-05-10T06:43:57;12.50;74.20
56542;DHT22;42438;53.174;6.730;2023-05-10T06:46:28;12.50;73.80
56542;DHT22;42438;53.174;6.730;2023-05-10T06:48:59;12.40;71.30
56542;DHT22;42438;53.174;6.730;2023-05-10T06:51:30;12.40;72.00
56542;DHT22;42438;53.174;6.730;2023-05-10T06:54:01;12.30;70.70
56542;DHT22;42438;53.174;6.730;2023-05-10T06:56:33;12.30;70.20
56542;DHT22;42438;53.174;6.730;2023-05-10T06:59:04;12.30;70.40
56542;DHT22;42438;53.174;6.730;2023-05-10T07:01:34;12.30;71.80
56542;DHT22;42438;53.174;6.730;2023-05-10T07:04:05;12.30;72.90
56542;DHT22;42438;53.174;6.730;2023-05-10T07:06:37;12.20;69.20
56542;DHT22;42438;53.174;6.730;2023-05-10T07:09:08;12.20;69.50
56542;DHT22;42438;53.174;6.730;2023-05-10T07:11:39;12.10;68.70
56542;DHT22;42438;53.174;6.730;2023-05-10T07:14:09;12.10;68.70
56542;DHT22;42438;53.174;6.730;2023-05-10T07:16:40;12.10;68.40
56542;DHT22;42438;53.174;6.730;2023-05-10T07:19:11;12.00;69.10
56542;DHT22;42438;53.174;6.730;2023-05-10T07:21:41;12.10;71.60
56542;DHT22;42438;53.174;6.730;2023-05-10T07:24:13;12.00;71.40
56542;DHT22;42438;53.174;6.730;2023-05-10T07:26:44;12.00;69.60
56542;DHT22;42438;53.174;6.730;2023-05-10T07:29:14;12.10;70.80
56542;DHT22;42438;53.174;6.730;2023-05-10T07:31:45;12.00;71.40
56542;DHT22;42438;53.174;6.730;2023-05-10T07:34:16;12.00;72.50
56542;DHT22;42438;53.174;6.730;2023-05-10T07:36:46;12.10;73.80
56542;DHT22;42438;53.174;6.730;2023-05-10T07:39:17;12.10;73.10
56542;DHT22;42438;53.174;6.730;2023-05-10T07:41:47;12.10;72.90
56542;DHT22;42438;53.174;6.730;2023-05-10T07:44:18;12.10;73.40
56542;DHT22;42438;53.174;6.730;2023-05-10T07:46:50;12.10;72.30
56542;DHT22;42438;53.174;6.730;2023-05-10T07:49:21;12.20;73.50
56542;DHT22;42438;53.174;6.730;2023-05-10T07:51:52;12.30;73.20
56542;DHT22;42438;53.174;6.730;2023-05-10T07:54:22;12.30;70.50
56542;DHT22;42438;53.174;6.730;2023-05-10T07:56:53;12.80;67.10
56542;DHT22;42438;53.174;6.730;2023-05-10T07:59:24;12.40;63.50
56542;DHT22;42438;53.174;6.730;2023-05-10T08:01:54;12.50;65.90
56542;DHT22;42438;53.174;6.730;2023-05-10T08:04:25;13.00;66.30
56542;DHT22;42438;53.174;6.730;2023-05-10T08:06:56;12.60;63.10
56542;DHT22;42438;53.174;6.730;2023-05-10T08:09:26;12.70;62.80
56542;DHT22;42438;53.174;6.730;2023-05-10T08:11:57;12.70;60.60
56542;DHT22;42438;53.174;6.730;2023-05-10T08:14:29;12.70;58.40
56542;DHT22;42438;53.174;6.730;2023-05-10T08:17:00;12.70;57.60
56542;DHT22;42438;53.174;6.730;2023-05-10T08:19:31;12.80;59.30
56542;DHT22;42438;53.174;6.730;2023-05-10T08:22:02;12.80;56.80
56542;DHT22;42438;53.174;6.730;2023-05-10T08:24:33;12.70;51.30
56542;DHT22;42438;53.174;6.730;2023-05-10T08:27:08;12.80;54.70
56542;DHT22;42438;53.174;6.730;2023-05-10T08:29:39;12.80;50.80
56542;DHT22;42438;53.174;6.730;2023-05-10T08:32:10;12.80;51.30
56542;DHT22;42438;53.174;6.730;2023-05-10T08:34:40;12.70;51.20
56542;DHT22;42438;53.174;6.730;2023-05-10T08:37:11;12.60;52.10
56542;DHT22;42438;53.174;6.730;2023-05-10T08:39:43;12.60;52.00
56542;DHT22;42438;53.174;6.730;2023-05-10T08:42:18;12.60;53.90
56542;DHT22;42438;53.174;6.730;2023-05-10T08:44:51;12.60;57.00
56542;DHT22;42438;53.174;6.730;2023-05-10T08:47:22;12.60;56.30
56542;DHT22;42438;53.174;6.730;2023-05-10T08:49:54;12.50;56.20
56542;DHT22;42438;53.174;6.730;2023-05-10T08:52:26;12.50;54.20
56542;DHT22;42438;53.174;6.730;2023-05-10T08:54:58;12.60;57.80
56542;DHT22;42438;53.174;6.730;2023-05-10T08:57:29;12.60;60.50
56542;DHT22;42438;53.174;6.730;2023-05-10T09:00:01;12.60;61.50
56542;DHT22;42438;53.174;6.730;2023-05-10T09:02:32;12.60;54.80
56542;DHT22;42438;53.174;6.730;2023-05-10T09:05:03;12.70;53.90
56542;DHT22;42438;53.174;6.730;2023-05-10T09:07:35;12.60;59.00
56542;DHT22;42438;53.174;6.730;2023-05-10T09:10:06;12.70;61.60
56542;DHT22;42438;53.174;6.730;2023-05-10T09:12:37;12.70;58.20
56542;DHT22;42438;53.174;6.730;2023-05-10T09:15:09;12.70;58.40
56542;DHT22;42438;53.174;6.730;2023-05-10T09:17:40;12.80;56.40
56542;DHT22;42438;53.174;6.730;2023-05-10T09:20:11;12.80;56.10
56542;DHT22;42438;53.174;6.730;2023-05-10T09:22:41;12.80;51.60
56542;DHT22;42438;53.174;6.730;2023-05-10T09:25:14;12.90;50.00
56542;DHT22;42438;53.174;6.730;2023-05-10T09:27:46;12.90;48.00
56542;DHT22;42438;53.174;6.730;2023-05-10T09:32:54;13.00;45.70
56542;DHT22;42438;53.174;6.730;2023-05-10T09:35:27;13.10;45.80
56542;DHT22;42438;53.174;6.730;2023-05-10T09:38:02;13.10;43.10
56542;DHT22;42438;53.174;6.730;2023-05-10T09:40:32;13.20;43.20
56542;DHT22;42438;53.174;6.730;2023-05-10T09:43:07;13.20;40.30
56542;DHT22;42438;53.174;6.730;2023-05-10T09:45:37;13.20;44.00
56542;DHT22;42438;53.174;6.730;2023-05-10T09:48:09;13.30;40.70
56542;DHT22;42438;53.174;6.730;2023-05-10T09:50:40;13.30;39.40
56542;DHT22;42438;53.174;6.730;2023-05-10T09:53:14;13.30;34.50
56542;DHT22;42438;53.174;6.730;2023-05-10T09:55:46;13.30;34.60
56542;DHT22;42438;53.174;6.730;2023-05-10T09:58:17;13.50;41.40
56542;DHT22;42438;53.174;6.730;2023-05-10T10:00:47;13.70;33.00
56542;DHT22;42438;53.174;6.730;2023-05-10T10:03:21;13.80;28.20
56542;DHT22;42438;53.174;6.730;2023-05-10T10:05:52;13.90;23.10
56542;DHT22;42438;53.174;6.730;2023-05-10T10:08:24;14.00;27.70
56542;DHT22;42438;53.174;6.730;2023-05-10T10:10:55;14.10;24.60
56542;DHT22;42438;53.174;6.730;2023-05-10T10:13:26;14.10;17.20
56542;DHT22;42438;53.174;6.730;2023-05-10T10:15:57;14.20;18.90
56542;DHT22;42438;53.174;6.730;2023-05-10T10:18:27;14.40;21.00
56542;DHT22;42438;53.174;6.730;2023-05-10T10:20:59;14.50;14.70
56542;DHT22;42438;53.174;6.730;2023-05-10T10:23:30;14.90;6.80
56542;DHT22;42438;53.174;6.730;2023-05-10T10:26:04;14.50;1.00
56542;DHT22;42438;53.174;6.730;2023-05-10T10:34:09;14.30;1.00
56542;DHT22;42438;53.174;6.730;2023-05-10T10:36:42;14.20;1.00
56542;DHT22;42438;53.174;6.730;2023-05-10T10:39:14;14.20;1.00
56542;DHT22;42438;53.174;6.730;2023-05-10T10:41:55;14.20;1.00
56542;DHT22;42438;53.174;6.730;2023-05-10T10:49:43;14.60;1.00
56542;DHT22;42438;53.174;6.730;2023-05-10T10:52:30;14.60;1.00
56542;DHT22;42438;53.174;6.730;2023-05-10T10:55:12;14.70;1.00
56542;DHT22;42438;53.174;6.730;2023-05-10T10:57:57;14.80;1.00
56542;DHT22;42438;53.174;6.730;2023-05-10T11:00:35;14.80;1.00
56542;DHT22;42438;53.174;6.730;2023-05-10T11:03:09;14.80;1.00
56542;DHT22;42438;53.174;6.730;2023-05-10T11:13:34;15.30;1.00
56542;DHT22;42438;53.174;6.730;2023-05-10T11:16:24;15.30;1.00
56542;DHT22;42438;53.174;6.730;2023-05-10T11:21:33;15.30;1.00
56542;DHT22;42438;53.174;6.730;2023-05-10T11:24:13;15.10;1.00
56542;DHT22;42438;53.174;6.730;2023-05-10T11:26:44;15.10;1.00
56542;DHT22;42438;53.174;6.730;2023-05-10T11:29:16;15.10;1.00
56542;DHT22;42438;53.174;6.730;2023-05-10T11:31:47;15.10;1.00
56542;DHT22;42438;53.174;6.730;2023-05-10T11:34:29;15.00;1.00
56542;DHT22;42438;53.174;6.730;2023-05-10T11:37:00;15.10;1.00
56542;DHT22;42438;53.174;6.730;2023-05-10T11:39:32;15.30;1.00
56542;DHT22;42438;53.174;6.730;2023-05-10T11:42:03;15.40;1.00
56542;DHT22;42438;53.174;6.730;2023-05-10T11:44:34;15.50;1.00
56542;DHT22;42438;53.174;6.730;2023-05-10T11:47:05;15.50;1.00
56542;DHT22;42438;53.174;6.730;2023-05-10T11:49:36;15.50;1.00
56542;DHT22;42438;53.174;6.730;2023-05-10T11:52:07;15.50;1.00
56542;DHT22;42438;53.174;6.730;2023-05-10T11:54:54;15.60;1.00
56542;DHT22;42438;53.174;6.730;2023-05-10T11:57:26;15.60;1.00
56542;DHT22;42438;53.174;6.730;2023-05-10T11:59:58;15.60;1.00
56542;DHT22;42438;53.174;6.730;2023-05-10T12:02:28;15.50;1.00
56542;DHT22;42438;53.174;6.730;2023-05-10T12:04:59;15.40;1.00
56542;DHT22;42438;53.174;6.730;2023-05-10T12:07:30;15.40;1.00
56542;DHT22;42438;53.174;6.730;2023-05-10T12:10:06;15.30;1.00
56542;DHT22;42438;53.174;6.730;2023-05-10T12:12:42;15.30;1.00
56542;DHT22;42438;53.174;6.730;2023-05-10T12:15:22;15.30;1.00
56542;DHT22;42438;53.174;6.730;2023-05-10T12:17:53;15.30;1.00
56542;DHT22;42438;53.174;6.730;2023-05-10T12:20:27;15.20;1.00
56542;DHT22;42438;53.174;6.730;2023-05-10T12:22:58;15.10;1.00
56542;DHT22;42438;53.174;6.730;2023-05-10T12:25:33;15.10;1.00
56542;DHT22;42438;53.174;6.730;2023-05-10T12:28:08;15.10;1.00
56542;DHT22;42438;53.174;6.730;2023-05-10T12:30:39;15.10;1.00
56542;DHT22;42438;53.174;6.730;2023-05-10T12:33:12;15.20;1.00
56542;DHT22;42438;53.174;6.730;2023-05-10T12:35:49;15.30;1.00
56542;DHT22;42438;53.174;6.730;2023-05-10T12:38:33;15.30;1.00
56542;DHT22;42438;53.174;6.730;2023-05-10T12:41:10;15.30;1.00
56542;DHT22;42438;53.174;6.730;2023-05-10T12:43:40;15.20;1.00
56542;DHT22;42438;53.174;6.730;2023-05-10T12:46:13;15.20;1.00
56542;DHT22;42438;53.174;6.730;2023-05-10T12:48:44;15.20;1.00
56542;DHT22;42438;53.174;6.730;2023-05-10T12:51:25;15.10;1.00
56542;DHT22;42438;53.174;6.730;2023-05-10T12:53:55;15.00;1.00
56542;DHT22;42438;53.174;6.730;2023-05-10T12:56:26;15.00;1.00
56542;DHT22;42438;53.174;6.730;2023-05-10T12:58:56;14.90;1.00
56542;DHT22;42438;53.174;6.730;2023-05-10T13:01:27;14.90;1.00
56542;DHT22;42438;53.174;6.730;2023-05-10T13:03:58;15.00;1.00
56542;DHT22;42438;53.174;6.730;2023-05-10T13:06:30;14.90;1.00
56542;DHT22;42438;53.174;6.730;2023-05-10T13:09:01;15.10;1.00
56542;DHT22;42438;53.174;6.730;2023-05-10T13:11:32;15.30;1.00
56542;DHT22;42438;53.174;6.730;2023-05-10T13:14:03;15.20;1.00
56542;DHT22;42438;53.174;6.730;2023-05-10T13:16:34;15.20;1.00
56542;DHT22;42438;53.174;6.730;2023-05-10T13:19:04;15.30;1.00
56542;DHT22;42438;53.174;6.730;2023-05-10T13:21:35;15.40;1.00
56542;DHT22;42438;53.174;6.730;2023-05-10T13:24:06;15.40;1.00
56542;DHT22;42438;53.174;6.730;2023-05-10T13:26:37;15.50;1.00
56542;DHT22;42438;53.174;6.730;2023-05-10T13:29:08;15.70;1.00
56542;DHT22;42438;53.174;6.730;2023-05-10T13:31:38;15.80;1.00
56542;DHT22;42438;53.174;6.730;2023-05-10T13:34:09;16.00;1.00
56542;DHT22;42438;53.174;6.730;2023-05-10T13:36:40;16.10;99.90
56542;DHT22;42438;53.174;6.730;2023-05-10T13:39:11;16.10;99.90
56542;DHT22;42438;53.174;6.730;2023-05-10T13:41:42;16.00;99.90
56542;DHT22;42438;53.174;6.730;2023-05-10T13:44:13;16.00;99.90
56542;DHT22;42438;53.174;6.730;2023-05-10T13:46:44;16.00;99.90
56542;DHT22;42438;53.174;6.730;2023-05-10T13:49:15;15.90;99.90
56542;DHT22;42438;53.174;6.730;2023-05-10T13:51:46;15.70;99.90
56542;DHT22;42438;53.174;6.730;2023-05-10T13:54:16;15.70;99.90
56542;DHT22;42438;53.174;6.730;2023-05-10T13:56:49;15.50;99.90
56542;DHT22;42438;53.174;6.730;2023-05-10T13:59:20;15.40;99.90
56542;DHT22;42438;53.174;6.730;2023-05-10T14:01:51;15.40;99.90
56542;DHT22;42438;53.174;6.730;2023-05-10T14:04:22;15.30;1.00
56542;DHT22;42438;53.174;6.730;2023-05-10T14:06:52;15.30;1.00
56542;DHT22;42438;53.174;6.730;2023-05-10T14:09:23;15.10;1.00
56542;DHT22;42438;53.174;6.730;2023-05-10T14:11:53;15.00;1.00
56542;DHT22;42438;53.174;6.730;2023-05-10T14:14:24;15.00;1.00
56542;DHT22;42438;53.174;6.730;2023-05-10T14:16:55;15.00;1.00
56542;DHT22;42438;53.174;6.730;2023-05-10T14:19:27;15.00;1.00
56542;DHT22;42438;53.174;6.730;2023-05-10T14:21:58;15.00;1.00
56542;DHT22;42438;53.174;6.730;2023-05-10T14:24:28;15.10;1.00
56542;DHT22;42438;53.174;6.730;2023-05-10T14:26:59;15.10;1.00
56542;DHT22;42438;53.174;6.730;2023-05-10T14:29:31;15.10;1.00
56542;DHT22;42438;53.174;6.730;2023-05-10T14:32:02;15.10;1.00
56542;DHT22;42438;53.174;6.730;2023-05-10T14:34:33;15.10;1.00
56542;DHT22;42438;53.174;6.730;2023-05-10T14:37:03;15.10;1.00
56542;DHT22;42438;53.174;6.730;2023-05-10T14:39:34;15.20;1.00
56542;DHT22;42438;53.174;6.730;2023-05-10T14:42:05;15.20;1.00
56542;DHT22;42438;53.174;6.730;2023-05-10T14:44:36;15.20;1.00
56542;DHT22;42438;53.174;6.730;2023-05-10T14:47:06;15.30;1.00
56542;DHT22;42438;53.174;6.730;2023-05-10T14:49:37;15.20;1.00
56542;DHT22;42438;53.174;6.730;2023-05-10T14:52:08;15.10;1.00
56542;DHT22;42438;53.174;6.730;2023-05-10T14:54:38;15.10;1.00
56542;DHT22;42438;53.174;6.730;2023-05-10T14:57:09;15.20;1.00
56542;DHT22;42438;53.174;6.730;2023-05-10T14:59:40;15.20;1.00
56542;DHT22;42438;53.174;6.730;2023-05-10T15:02:10;15.30;1.00
56542;DHT22;42438;53.174;6.730;2023-05-10T15:04:41;15.40;1.00
56542;DHT22;42438;53.174;6.730;2023-05-10T15:07:12;15.60;1.00
56542;DHT22;42438;53.174;6.730;2023-05-10T15:09:45;15.70;1.00
56542;DHT22;42438;53.174;6.730;2023-05-10T15:12:15;15.90;99.90
56542;DHT22;42438;53.174;6.730;2023-05-10T15:14:46;16.00;99.90
56542;DHT22;42438;53.174;6.730;2023-05-10T15:17:17;16.10;99.90
56542;DHT22;42438;53.174;6.730;2023-05-10T15:19:47;16.10;99.90
56542;DHT22;42438;53.174;6.730;2023-05-10T15:22:19;16.20;97.10
56542;DHT22;42438;53.174;6.730;2023-05-10T15:24:50;16.30;1.00
56542;DHT22;42438;53.174;6.730;2023-05-10T15:27:20;16.40;99.90
56542;DHT22;42438;53.174;6.730;2023-05-10T15:29:52;16.50;99.90
56542;DHT22;42438;53.174;6.730;2023-05-10T15:32:22;16.60;99.90
56542;DHT22;42438;53.174;6.730;2023-05-10T15:34:53;16.80;1.00
56542;DHT22;42438;53.174;6.730;2023-05-10T15:37:23;16.90;99.90
56542;DHT22;42438;53.174;6.730;2023-05-10T15:39:54;16.90;99.90
56542;DHT22;42438;53.174;6.730;2023-05-10T15:42:32;16.80;96.70
56542;DHT22;42438;53.174;6.730;2023-05-10T15:45:03;16.80;1.00
56542;DHT22;42438;53.174;6.730;2023-05-10T15:47:34;16.70;1.00
56542;DHT22;42438;53.174;6.730;2023-05-10T15:50:06;16.70;1.00
56542;DHT22;42438;53.174;6.730;2023-05-10T15:52:37;16.60;99.90
56542;DHT22;42438;53.174;6.730;2023-05-10T15:55:08;16.60;99.90
56542;DHT22;42438;53.174;6.730;2023-05-10T15:57:43;16.50;99.90
56542;DHT22;42438;53.174;6.730;2023-05-10T16:00:14;16.50;99.90
56542;DHT22;42438;53.174;6.730;2023-05-10T16:02:45;16.40;99.90
56542;DHT22;42438;53.174;6.730;2023-05-10T16:05:16;16.30;1.00
56542;DHT22;42438;53.174;6.730;2023-05-10T16:07:46;16.30;99.90
56542;DHT22;42438;53.174;6.730;2023-05-10T16:10:17;16.20;99.90
56542;DHT22;42438;53.174;6.730;2023-05-10T16:12:48;16.20;1.00
56542;DHT22;42438;53.174;6.730;2023-05-10T16:15:18;16.10;1.00
56542;DHT22;42438;53.174;6.730;2023-05-10T16:17:51;16.00;99.90
56542;DHT22;42438;53.174;6.730;2023-05-10T16:20:21;15.90;99.90
56542;DHT22;42438;53.174;6.730;2023-05-10T16:22:52;15.80;1.00
56542;DHT22;42438;53.174;6.730;2023-05-10T16:25:23;15.70;1.00
56542;DHT22;42438;53.174;6.730;2023-05-10T16:27:53;15.60;1.00
56542;DHT22;42438;53.174;6.730;2023-05-10T16:30:24;15.50;1.00
56542;DHT22;42438;53.174;6.730;2023-05-10T16:32:57;15.40;1.00
56542;DHT22;42438;53.174;6.730;2023-05-10T16:35:28;15.40;37.20
56542;DHT22;42438;53.174;6.730;2023-05-10T16:37:59;15.20;1.00
56542;DHT22;42438;53.174;6.730;2023-05-10T16:40:31;15.10;1.00
56542;DHT22;42438;53.174;6.730;2023-05-10T16:43:02;15.00;1.00
56542;DHT22;42438;53.174;6.730;2023-05-10T16:45:32;14.90;1.00